Terminal Aerodrome Forecast
Issued by NWS Mobile, AL

Home | Current Version | Previous Version | Text Only | Print | Product List | Glossary On
Versions: 1 2 3 4 5 6 7 8 9 10 11 12 13 14 15 16 17 18 19 20
000
FTUS44 KMOB 292327
TAFMOB
TAF
KMOB 292327Z 3000/3024 15008KT P6SM FEW035 BKN250
     FM300600 15005KT P6SM SCT060
     FM301200 14007KT 4SM BR OVC007
     FM301500 16015KT P6SM OVC025=

USA.gov is the U.S. government's official web portal to all federal, state and local government web resources and services.